Baugh, Mississippi
Current Conditions -  °F | °C
As of 4:35 PM on Tuesday 21 Oct 2014 (Local Time) from KCKM Reporting Station
Clear Clear  
Wind Chill: 75°   Ceiling: Unl
Heat Index: 75°   Visibility: 9mi
Dew Point: 52°   Wind: 9mph
Humidity: 44%   Direction: 350°N
Pressure: 30.04"   Gusts: NA
Location:  34.2103°N, 90.7115°W
Report Text: KCKM 212135Z AUTO 35008KT 9SM CLR 24/11 A3004 RMK AO1
Loading
Personal Weather Stations






























Interactive Weather Map
Tropical Storm Tracking
New forecast layout! Learn more

10-Day Weather Forecast

Advertisements
Track Severe Weather on mobile